sensor_id;sensor_type;location;lat;lon;timestamp;pressure;altitude;pressure_sealevel;temperature;humidity
69221;BME280;56331;51.992;20.910;2023-01-06T00:02:15;100196.91;;;22.16;36.68
69221;BME280;56331;51.992;20.910;2023-01-06T00:04:42;100202.67;;;22.17;36.65
69221;BME280;56331;51.992;20.910;2023-01-06T00:07:08;100205.23;;;22.16;36.75
69221;BME280;56331;51.992;20.910;2023-01-06T00:09:35;100216.33;;;22.16;36.71
69221;BME280;56331;51.992;20.910;2023-01-06T00:12:01;100215.49;;;22.16;36.56
69221;BME280;56331;51.992;20.910;2023-01-06T00:14:29;100225.79;;;22.15;36.66
69221;BME280;56331;51.992;20.910;2023-01-06T00:16:55;100231.92;;;22.15;36.73
69221;BME280;56331;51.992;20.910;2023-01-06T00:19:21;100235.50;;;22.15;36.54
69221;BME280;56331;51.992;20.910;2023-01-06T00:21:47;100248.23;;;22.16;36.69
69221;BME280;56331;51.992;20.910;2023-01-06T00:24:13;100252.14;;;22.15;36.55
69221;BME280;56331;51.992;20.910;2023-01-06T00:26:39;100251.02;;;22.16;36.69
69221;BME280;56331;51.992;20.910;2023-01-06T00:29:07;100250.42;;;22.17;36.53
69221;BME280;56331;51.992;20.910;2023-01-06T00:31:34;100266.27;;;22.16;36.43
69221;BME280;56331;51.992;20.910;2023-01-06T00:34:01;100274.13;;;22.14;36.37
69221;BME280;56331;51.992;20.910;2023-01-06T00:36:28;100267.98;;;22.15;36.40
69221;BME280;56331;51.992;20.910;2023-01-06T00:38:54;100282.45;;;22.14;36.30
69221;BME280;56331;51.992;20.910;2023-01-06T00:41:21;100284.41;;;22.14;36.28
69221;BME280;56331;51.992;20.910;2023-01-06T00:44:05;100278.87;;;22.14;36.35
69221;BME280;56331;51.992;20.910;2023-01-06T00:46:32;100288.58;;;22.14;36.33
69221;BME280;56331;51.992;20.910;2023-01-06T00:48:59;100298.51;;;22.15;36.24
69221;BME280;56331;51.992;20.910;2023-01-06T00:51:26;100285.22;;;22.14;36.30
69221;BME280;56331;51.992;20.910;2023-01-06T00:53:53;100300.48;;;22.14;36.25
69221;BME280;56331;51.992;20.910;2023-01-06T00:56:20;100308.80;;;22.14;36.41
69221;BME280;56331;51.992;20.910;2023-01-06T00:58:49;100310.77;;;22.14;36.25
69221;BME280;56331;51.992;20.910;2023-01-06T01:01:15;100314.09;;;22.13;36.12
69221;BME280;56331;51.992;20.910;2023-01-06T01:03:42;100314.68;;;22.13;36.17
69221;BME280;56331;51.992;20.910;2023-01-06T01:06:08;100326.58;;;22.13;36.20
69221;BME280;56331;51.992;20.910;2023-01-06T01:08:35;100329.36;;;22.13;36.22
69221;BME280;56331;51.992;20.910;2023-01-06T01:11:02;100339.07;;;22.13;36.14
69221;BME280;56331;51.992;20.910;2023-01-06T01:13:29;100329.13;;;22.12;36.10
69221;BME280;56331;51.992;20.910;2023-01-06T01:15:55;100331.91;;;22.12;36.02
69221;BME280;56331;51.992;20.910;2023-01-06T01:18:21;100339.07;;;22.13;36.31
69221;BME280;56331;51.992;20.910;2023-01-06T01:20:47;100335.48;;;22.13;36.16
69221;BME280;56331;51.992;20.910;2023-01-06T01:23:13;100348.78;;;22.13;36.02
69221;BME280;56331;51.992;20.910;2023-01-06T01:25:40;100350.75;;;22.13;35.95
69221;BME280;56331;51.992;20.910;2023-01-06T01:28:06;100357.69;;;22.13;36.18
69221;BME280;56331;51.992;20.910;2023-01-06T01:30:32;100354.33;;;22.13;36.07
69221;BME280;56331;51.992;20.910;2023-01-06T01:32:58;100364.03;;;22.13;36.02
69221;BME280;56331;51.992;20.910;2023-01-06T01:35:24;100357.10;;;22.13;36.05
69221;BME280;56331;51.992;20.910;2023-01-06T01:37:50;100361.27;;;22.13;36.15
69221;BME280;56331;51.992;20.910;2023-01-06T01:40:17;100366.01;;;22.13;36.18
69221;BME280;56331;51.992;20.910;2023-01-06T01:42:43;100382.08;;;22.13;35.98
69221;BME280;56331;51.992;20.910;2023-01-06T01:45:30;100377.11;;;22.13;36.16
69221;BME280;56331;51.992;20.910;2023-01-06T01:47:40;100387.62;;;22.13;36.14
69221;BME280;56331;51.992;20.910;2023-01-06T01:50:07;100395.14;;;22.13;36.21
69221;BME280;56331;51.992;20.910;2023-01-06T01:52:33;100408.42;;;22.13;36.05
69221;BME280;56331;51.992;20.910;2023-01-06T01:55:00;100410.66;;;22.14;36.07
69221;BME280;56331;51.992;20.910;2023-01-06T01:57:30;100410.40;;;22.13;35.99
69221;BME280;56331;51.992;20.910;2023-01-06T01:59:56;100416.75;;;22.13;36.04
69221;BME280;56331;51.992;20.910;2023-01-06T02:02:23;100426.47;;;22.13;36.07
69221;BME280;56331;51.992;20.910;2023-01-06T02:04:50;100430.41;;;22.12;35.83
69221;BME280;56331;51.992;20.910;2023-01-06T02:07:17;100439.53;;;22.13;35.84
69221;BME280;56331;51.992;20.910;2023-01-06T02:09:50;100432.02;;;22.13;36.07
69221;BME280;56331;51.992;20.910;2023-01-06T02:12:15;100433.66;;;22.14;36.23
69221;BME280;56331;51.992;20.910;2023-01-06T02:14:41;100438.95;;;22.13;36.27
69221;BME280;56331;51.992;20.910;2023-01-06T02:27:40;100463.11;;;22.13;35.95
69221;BME280;56331;51.992;20.910;2023-01-06T02:32:51;100470.63;;;22.12;36.10
69221;BME280;56331;51.992;20.910;2023-01-06T02:35:26;100471.22;;;22.12;36.22
69221;BME280;56331;51.992;20.910;2023-01-06T02:40:34;100480.67;;;22.11;35.86
69221;BME280;56331;51.992;20.910;2023-01-06T02:48:26;100495.38;;;22.11;35.96
69221;BME280;56331;51.992;20.910;2023-01-06T02:50:54;100499.54;;;22.11;35.96
69221;BME280;56331;51.992;20.910;2023-01-06T02:53:21;100497.31;;;22.11;35.90
69221;BME280;56331;51.992;20.910;2023-01-06T02:55:48;100503.45;;;22.10;36.00
69221;BME280;56331;51.992;20.910;2023-01-06T03:01:05;100522.87;;;22.10;35.90
69221;BME280;56331;51.992;20.910;2023-01-06T03:03:29;100530.16;;;22.09;35.71
69221;BME280;56331;51.992;20.910;2023-01-06T03:05:58;100533.73;;;22.09;35.25
69221;BME280;56331;51.992;20.910;2023-01-06T03:08:25;100527.94;;;22.08;34.91
69221;BME280;56331;51.992;20.910;2023-01-06T03:10:55;100531.87;;;22.07;34.56
69221;BME280;56331;51.992;20.910;2023-01-06T03:13:24;100532.09;;;22.08;34.34
69221;BME280;56331;51.992;20.910;2023-01-06T03:15:50;100532.67;;;22.07;34.25
69221;BME280;56331;51.992;20.910;2023-01-06T03:18:16;100537.64;;;22.08;34.06
69221;BME280;56331;51.992;20.910;2023-01-06T03:20:43;100543.19;;;22.08;33.93
69221;BME280;56331;51.992;20.910;2023-01-06T03:23:13;100541.58;;;22.07;33.79
69221;BME280;56331;51.992;20.910;2023-01-06T03:25:39;100542.97;;;22.07;33.64
69221;BME280;56331;51.992;20.910;2023-01-06T03:28:06;100551.29;;;22.07;33.48
69221;BME280;56331;51.992;20.910;2023-01-06T03:30:41;100552.45;;;22.06;33.40
69221;BME280;56331;51.992;20.910;2023-01-06T03:33:09;100552.45;;;22.06;33.30
69221;BME280;56331;51.992;20.910;2023-01-06T03:35:45;100555.23;;;22.06;33.15
69221;BME280;56331;51.992;20.910;2023-01-06T03:38:29;100557.74;;;22.05;33.04
69221;BME280;56331;51.992;20.910;2023-01-06T03:40:54;100553.58;;;22.05;32.91
69221;BME280;56331;51.992;20.910;2023-01-06T03:43:32;100559.13;;;22.05;32.82
69221;BME280;56331;51.992;20.910;2023-01-06T03:46:06;100561.91;;;22.05;32.65
69221;BME280;56331;51.992;20.910;2023-01-06T03:56:27;100584.20;;;22.02;32.27
69221;BME280;56331;51.992;20.910;2023-01-06T03:58:57;100584.20;;;22.02;32.19
69221;BME280;56331;51.992;20.910;2023-01-06T04:01:25;100587.55;;;22.02;32.17
69221;BME280;56331;51.992;20.910;2023-01-06T04:03:55;100600.03;;;22.02;32.20
69221;BME280;56331;51.992;20.910;2023-01-06T04:06:21;100606.97;;;22.02;32.81
69221;BME280;56331;51.992;20.910;2023-01-06T04:08:48;100603.62;;;22.02;33.06
69221;BME280;56331;51.992;20.910;2023-01-06T04:11:14;100605.00;;;22.02;33.25
69221;BME280;56331;51.992;20.910;2023-01-06T04:13:42;100614.16;;;22.03;33.33
69221;BME280;56331;51.992;20.910;2023-01-06T04:16:08;100612.78;;;22.03;33.36
69221;BME280;56331;51.992;20.910;2023-01-06T04:18:34;100612.52;;;22.02;33.36
69221;BME280;56331;51.992;20.910;2023-01-06T04:21:01;100614.16;;;22.03;33.41
69221;BME280;56331;51.992;20.910;2023-01-06T04:23:27;100607.78;;;22.02;33.45
69221;BME280;56331;51.992;20.910;2023-01-06T04:25:55;100606.16;;;22.01;33.54
69221;BME280;56331;51.992;20.910;2023-01-06T04:28:21;100604.77;;;22.01;33.51
69221;BME280;56331;51.992;20.910;2023-01-06T04:30:48;100598.65;;;22.02;33.53
69221;BME280;56331;51.992;20.910;2023-01-06T04:33:14;100589.52;;;22.01;33.60
69221;BME280;56331;51.992;20.910;2023-01-06T04:35:41;100586.75;;;22.01;33.63
69221;BME280;56331;51.992;20.910;2023-01-06T04:38:08;100590.91;;;22.01;33.50
69221;BME280;56331;51.992;20.910;2023-01-06T04:40:34;100589.52;;;22.01;33.65
69221;BME280;56331;51.992;20.910;2023-01-06T04:43:00;100592.06;;;22.00;33.66
69221;BME280;56331;51.992;20.910;2023-01-06T04:45:30;100589.84;;;22.00;33.66
69221;BME280;56331;51.992;20.910;2023-01-06T04:47:56;100600.71;;;21.99;33.52
69221;BME280;56331;51.992;20.910;2023-01-06T04:50:23;100607.06;;;21.99;33.40
69221;BME280;56331;51.992;20.910;2023-01-06T04:52:49;100601.52;;;21.99;33.50
69221;BME280;56331;51.992;20.910;2023-01-06T04:55:16;100602.68;;;21.98;33.38
69221;BME280;56331;51.992;20.910;2023-01-06T04:57:42;100610.20;;;21.98;33.13
69221;BME280;56331;51.992;20.910;2023-01-06T05:00:09;100610.74;;;21.97;33.26
69221;BME280;56331;51.992;20.910;2023-01-06T05:02:36;100613.29;;;21.96;33.29
69221;BME280;56331;51.992;20.910;2023-01-06T05:05:03;100612.71;;;21.97;33.37
69221;BME280;56331;51.992;20.910;2023-01-06T05:07:29;100622.42;;;21.97;33.27
69221;BME280;56331;51.992;20.910;2023-01-06T05:09:55;100631.55;;;21.97;33.35
69221;BME280;56331;51.992;20.910;2023-01-06T05:12:21;100627.97;;;21.97;33.31
69221;BME280;56331;51.992;20.910;2023-01-06T05:14:47;100632.39;;;21.98;33.26
69221;BME280;56331;51.992;20.910;2023-01-06T05:17:14;100630.74;;;21.97;33.22
69221;BME280;56331;51.992;20.910;2023-01-06T05:19:40;100627.16;;;21.96;33.31
69221;BME280;56331;51.992;20.910;2023-01-06T05:22:10;100632.94;;;21.97;33.29
69221;BME280;56331;51.992;20.910;2023-01-06T05:24:36;100632.39;;;21.98;33.35
69221;BME280;56331;51.992;20.910;2023-01-06T05:27:03;100623.23;;;21.97;33.40
69221;BME280;56331;51.992;20.910;2023-01-06T05:29:29;100627.39;;;21.97;33.28
69221;BME280;56331;51.992;20.910;2023-01-06T05:31:55;100633.77;;;21.98;33.35
69221;BME280;56331;51.992;20.910;2023-01-06T05:34:21;100627.97;;;21.97;33.37
69221;BME280;56331;51.992;20.910;2023-01-06T05:36:47;100640.22;;;21.96;33.28
69221;BME280;56331;51.992;20.910;2023-01-06T05:39:14;100644.38;;;21.96;33.34
69221;BME280;56331;51.992;20.910;2023-01-06T05:41:40;100644.38;;;21.96;33.27
69221;BME280;56331;51.992;20.910;2023-01-06T05:44:06;100639.64;;;21.96;33.38
69221;BME280;56331;51.992;20.910;2023-01-06T05:46:35;100641.61;;;21.96;33.35
69221;BME280;56331;51.992;20.910;2023-01-06T05:49:01;100653.52;;;21.96;33.29
69221;BME280;56331;51.992;20.910;2023-01-06T05:51:28;100651.06;;;21.95;33.32
69221;BME280;56331;51.992;20.910;2023-01-06T05:53:54;100660.22;;;21.95;33.35
69221;BME280;56331;51.992;20.910;2023-01-06T05:56:20;100660.77;;;21.95;33.39
69221;BME280;56331;51.992;20.910;2023-01-06T05:59:05;100662.16;;;21.95;33.39
69221;BME280;56331;51.992;20.910;2023-01-06T06:01:31;100664.93;;;21.95;33.43
69221;BME280;56331;51.992;20.910;2023-01-06T06:03:57;100670.25;;;21.94;33.29
69221;BME280;56331;51.992;20.910;2023-01-06T06:06:24;100678.57;;;21.94;33.12
69221;BME280;56331;51.992;20.910;2023-01-06T06:08:50;100676.02;;;21.95;33.07
69221;BME280;56331;51.992;20.910;2023-01-06T06:11:17;100671.41;;;21.93;33.01
69221;BME280;56331;51.992;20.910;2023-01-06T06:13:47;100676.38;;;21.93;33.00
69221;BME280;56331;51.992;20.910;2023-01-06T06:16:14;100683.89;;;21.93;33.00
69221;BME280;56331;51.992;20.910;2023-01-06T06:18:41;100688.05;;;21.93;33.02
69221;BME280;56331;51.992;20.910;2023-01-06T06:21:13;100691.37;;;21.92;33.04
69221;BME280;56331;51.992;20.910;2023-01-06T06:23:40;100688.59;;;21.92;33.00
69221;BME280;56331;51.992;20.910;2023-01-06T06:26:07;100687.21;;;21.92;33.00
69221;BME280;56331;51.992;20.910;2023-01-06T06:28:34;100685.02;;;21.92;32.96
69221;BME280;56331;51.992;20.910;2023-01-06T06:31:08;100691.95;;;21.92;32.92
69221;BME280;56331;51.992;20.910;2023-01-06T06:33:34;100708.59;;;21.92;32.92
69221;BME280;56331;51.992;20.910;2023-01-06T06:36:01;100708.02;;;21.92;32.87
69221;BME280;56331;51.992;20.910;2023-01-06T06:38:27;100717.17;;;21.93;32.78
69221;BME280;56331;51.992;20.910;2023-01-06T06:40:54;100727.69;;;21.93;32.81
69221;BME280;56331;51.992;20.910;2023-01-06T06:43:20;100729.66;;;21.93;32.77
69221;BME280;56331;51.992;20.910;2023-01-06T06:45:47;100726.30;;;21.93;32.80
69221;BME280;56331;51.992;20.910;2023-01-06T06:48:13;100726.88;;;21.93;32.88
69221;BME280;56331;51.992;20.910;2023-01-06T06:50:40;100735.44;;;21.94;32.93
69221;BME280;56331;51.992;20.910;2023-01-06T06:53:06;100744.56;;;21.94;32.88
69221;BME280;56331;51.992;20.910;2023-01-06T06:55:33;100740.66;;;21.95;32.90
69221;BME280;56331;51.992;20.910;2023-01-06T06:57:59;100741.79;;;21.94;32.93
69221;BME280;56331;51.992;20.910;2023-01-06T07:00:26;100745.37;;;21.95;32.99
69221;BME280;56331;51.992;20.910;2023-01-06T07:02:52;100745.37;;;21.95;33.00
69221;BME280;56331;51.992;20.910;2023-01-06T07:05:18;100740.66;;;21.95;32.96
69221;BME280;56331;51.992;20.910;2023-01-06T07:07:52;100748.14;;;21.95;32.96
69221;BME280;56331;51.992;20.910;2023-01-06T07:10:19;100747.34;;;21.94;32.95
69221;BME280;56331;51.992;20.910;2023-01-06T07:12:45;100739.02;;;21.94;32.86
69221;BME280;56331;51.992;20.910;2023-01-06T07:15:14;100756.73;;;21.96;32.96
69221;BME280;56331;51.992;20.910;2023-01-06T07:17:40;100760.08;;;21.95;33.22
69221;BME280;56331;51.992;20.910;2023-01-06T07:20:07;100757.30;;;21.95;33.45
69221;BME280;56331;51.992;20.910;2023-01-06T07:22:37;100762.02;;;21.95;33.66
69221;BME280;56331;51.992;20.910;2023-01-06T07:25:08;100765.63;;;21.95;33.82
69221;BME280;56331;51.992;20.910;2023-01-06T07:27:32;100767.82;;;21.96;33.89
69221;BME280;56331;51.992;20.910;2023-01-06T07:29:58;100767.82;;;21.96;33.80
69221;BME280;56331;51.992;20.910;2023-01-06T07:32:24;100768.95;;;21.95;33.71
69221;BME280;56331;51.992;20.910;2023-01-06T07:34:50;100764.79;;;21.95;33.71
69221;BME280;56331;51.992;20.910;2023-01-06T07:37:18;100759.50;;;21.96;33.55
69221;BME280;56331;51.992;20.910;2023-01-06T07:39:45;100764.24;;;21.95;33.45
69221;BME280;56331;51.992;20.910;2023-01-06T07:42:11;100761.47;;;21.95;33.40
69221;BME280;56331;51.992;20.910;2023-01-06T07:44:37;100758.69;;;21.95;33.39
69221;BME280;56331;51.992;20.910;2023-01-06T07:47:03;100763.08;;;21.96;33.33
69221;BME280;56331;51.992;20.910;2023-01-06T07:49:31;100763.40;;;21.95;33.22
69221;BME280;56331;51.992;20.910;2023-01-06T07:51:57;100767.02;;;21.95;33.23
69221;BME280;56331;51.992;20.910;2023-01-06T07:54:23;100764.24;;;21.95;33.19
69221;BME280;56331;51.992;20.910;2023-01-06T07:56:49;100764.56;;;21.94;33.14
69221;BME280;56331;51.992;20.910;2023-01-06T07:59:15;100775.89;;;21.95;33.13
69221;BME280;56331;51.992;20.910;2023-01-06T08:01:42;100782.01;;;21.94;33.03
69221;BME280;56331;51.992;20.910;2023-01-06T08:04:08;100782.59;;;21.94;33.33
69221;BME280;56331;51.992;20.910;2023-01-06T08:06:34;100784.55;;;21.93;33.82
69221;BME280;56331;51.992;20.910;2023-01-06T08:09:02;100787.64;;;21.92;34.02
69221;BME280;56331;51.992;20.910;2023-01-06T08:11:29;100794.58;;;21.92;34.22
69221;BME280;56331;51.992;20.910;2023-01-06T08:13:55;100796.55;;;21.91;34.37
69221;BME280;56331;51.992;20.910;2023-01-06T08:16:21;100790.19;;;21.91;34.60
69221;BME280;56331;51.992;20.910;2023-01-06T08:18:47;100791.58;;;21.91;34.72
69221;BME280;56331;51.992;20.910;2023-01-06T08:21:13;100789.93;;;21.90;34.82
69221;BME280;56331;51.992;20.910;2023-01-06T08:23:40;100788.55;;;21.90;35.02
69221;BME280;56331;51.992;20.910;2023-01-06T08:26:07;100789.93;;;21.90;35.06
69221;BME280;56331;51.992;20.910;2023-01-06T08:28:34;100789.13;;;21.89;35.27
69221;BME280;56331;51.992;20.910;2023-01-06T08:31:01;100794.44;;;21.88;35.40
69221;BME280;56331;51.992;20.910;2023-01-06T08:33:28;100791.89;;;21.89;35.61
69221;BME280;56331;51.992;20.910;2023-01-06T08:35:58;100790.28;;;21.88;35.62
69221;BME280;56331;51.992;20.910;2023-01-06T08:38:25;100796.64;;;21.89;35.72
69221;BME280;56331;51.992;20.910;2023-01-06T08:40:52;100813.05;;;21.88;35.93
69221;BME280;56331;51.992;20.910;2023-01-06T08:43:18;100821.91;;;21.87;35.92
69221;BME280;56331;51.992;20.910;2023-01-06T08:45:45;100819.41;;;21.88;36.28
69221;BME280;56331;51.992;20.910;2023-01-06T08:48:11;100827.46;;;21.87;36.35
69221;BME280;56331;51.992;20.910;2023-01-06T08:50:41;100825.27;;;21.87;36.36
69221;BME280;56331;51.992;20.910;2023-01-06T08:53:05;100827.46;;;21.87;36.23
69221;BME280;56331;51.992;20.910;2023-01-06T08:55:31;100823.07;;;21.86;36.50
69221;BME280;56331;51.992;20.910;2023-01-06T08:57:58;100818.91;;;21.86;36.44
69221;BME280;56331;51.992;20.910;2023-01-06T09:00:24;100811.98;;;21.86;36.40
69221;BME280;56331;51.992;20.910;2023-01-06T09:02:50;100822.75;;;21.88;36.37
69221;BME280;56331;51.992;20.910;2023-01-06T09:05:17;100821.37;;;21.88;36.54
69221;BME280;56331;51.992;20.910;2023-01-06T09:07:43;100829.69;;;21.88;36.67
69221;BME280;56331;51.992;20.910;2023-01-06T09:10:09;100818.33;;;21.87;36.53
69221;BME280;56331;51.992;20.910;2023-01-06T09:12:36;100818.33;;;21.87;36.60
69221;BME280;56331;51.992;20.910;2023-01-06T09:15:03;100823.87;;;21.87;36.73
69221;BME280;56331;51.992;20.910;2023-01-06T09:17:29;100821.11;;;21.87;36.94
69221;BME280;56331;51.992;20.910;2023-01-06T09:19:55;100830.00;;;21.86;37.03
69221;BME280;56331;51.992;20.910;2023-01-06T09:22:22;100818.10;;;21.85;36.99
69221;BME280;56331;51.992;20.910;2023-01-06T09:24:48;100813.68;;;21.84;37.16
69221;BME280;56331;51.992;20.910;2023-01-06T09:27:14;100813.68;;;21.84;37.40
69221;BME280;56331;51.992;20.910;2023-01-06T09:29:40;100815.91;;;21.85;37.30
69221;BME280;56331;51.992;20.910;2023-01-06T09:32:06;100806.52;;;21.83;37.44
69221;BME280;56331;51.992;20.910;2023-01-06T09:34:33;100809.78;;;21.85;36.79
69221;BME280;56331;51.992;20.910;2023-01-06T09:36:59;100816.14;;;21.86;36.03
69221;BME280;56331;51.992;20.910;2023-01-06T09:39:25;100804.73;;;21.88;35.71
69221;BME280;56331;51.992;20.910;2023-01-06T09:44:30;100811.40;;;21.87;34.84
69221;BME280;56331;51.992;20.910;2023-01-06T09:46:58;100812.47;;;21.88;34.50
69221;BME280;56331;51.992;20.910;2023-01-06T09:49:31;100807.50;;;21.88;34.37
69221;BME280;56331;51.992;20.910;2023-01-06T09:51:56;100810.50;;;21.89;34.02
69221;BME280;56331;51.992;20.910;2023-01-06T09:54:25;100813.05;;;21.88;33.82
69221;BME280;56331;51.992;20.910;2023-01-06T09:59:38;100813.86;;;21.88;33.50
69221;BME280;56331;51.992;20.910;2023-01-06T10:02:07;100812.47;;;21.88;33.30
69221;BME280;56331;51.992;20.910;2023-01-06T10:04:32;100818.83;;;21.89;33.96
69221;BME280;56331;51.992;20.910;2023-01-06T10:09:47;100803.88;;;21.87;34.43
69221;BME280;56331;51.992;20.910;2023-01-06T10:12:21;100797.88;;;21.85;34.59
69221;BME280;56331;51.992;20.910;2023-01-06T10:29:59;100786.88;;;21.82;35.13
69221;BME280;56331;51.992;20.910;2023-01-06T10:32:27;100785.48;;;21.82;35.33
69221;BME280;56331;51.992;20.910;2023-01-06T10:34:54;100788.00;;;21.81;35.39
69221;BME280;56331;51.992;20.910;2023-01-06T10:37:22;100785.22;;;21.81;35.60
69221;BME280;56331;51.992;20.910;2023-01-06T10:42:44;100775.52;;;21.81;35.71
69221;BME280;56331;51.992;20.910;2023-01-06T10:45:21;100780.75;;;21.83;35.98
69221;BME280;56331;51.992;20.910;2023-01-06T10:47:48;100777.97;;;21.83;35.99
69221;BME280;56331;51.992;20.910;2023-01-06T10:50:15;100775.52;;;21.81;35.93
69221;BME280;56331;51.992;20.910;2023-01-06T10:52:42;100780.48;;;21.82;35.84
69221;BME280;56331;51.992;20.910;2023-01-06T10:55:17;100770.78;;;21.82;35.82
69221;BME280;56331;51.992;20.910;2023-01-06T10:57:37;100766.62;;;21.82;35.78
69221;BME280;56331;51.992;20.910;2023-01-06T11:00:08;100766.62;;;21.82;35.88
69221;BME280;56331;51.992;20.910;2023-01-06T11:02:35;100769.39;;;21.82;35.79
69221;BME280;56331;51.992;20.910;2023-01-06T11:05:01;100758.87;;;21.81;35.90
69221;BME280;56331;51.992;20.910;2023-01-06T11:07:27;100744.20;;;21.81;35.96
69221;BME280;56331;51.992;20.910;2023-01-06T11:09:55;100746.17;;;21.80;36.03
69221;BME280;56331;51.992;20.910;2023-01-06T11:12:22;100738.17;;;21.79;36.08
69221;BME280;56331;51.992;20.910;2023-01-06T11:17:20;100740.94;;;21.79;36.16
69221;BME280;56331;51.992;20.910;2023-01-06T11:20:03;100733.69;;;21.80;36.22
69221;BME280;56331;51.992;20.910;2023-01-06T11:23:17;100722.02;;;21.81;36.18
69221;BME280;56331;51.992;20.910;2023-01-06T11:24:53;100718.44;;;21.80;36.30
69221;BME280;56331;51.992;20.910;2023-01-06T11:27:19;100719.02;;;21.80;36.52
69221;BME280;56331;51.992;20.910;2023-01-06T11:29:45;100719.02;;;21.80;36.50
69221;BME280;56331;51.992;20.910;2023-01-06T11:34:39;100721.21;;;21.80;36.99
69221;BME280;56331;51.992;20.910;2023-01-06T11:37:07;100719.56;;;21.79;37.42
69221;BME280;56331;51.992;20.910;2023-01-06T11:39:34;100721.21;;;21.80;37.28
69221;BME280;56331;51.992;20.910;2023-01-06T11:42:08;100715.40;;;21.79;37.43
69221;BME280;56331;51.992;20.910;2023-01-06T11:44:36;100715.17;;;21.78;37.54
69221;BME280;56331;51.992;20.910;2023-01-06T11:47:19;100718.17;;;21.79;37.50
69221;BME280;56331;51.992;20.910;2023-01-06T11:49:44;100712.08;;;21.80;37.60
69221;BME280;56331;51.992;20.910;2023-01-06T11:52:32;100702.69;;;21.78;37.42
69221;BME280;56331;51.992;20.910;2023-01-06T11:55:00;100691.83;;;21.79;37.60
69221;BME280;56331;51.992;20.910;2023-01-06T11:57:29;100697.38;;;21.79;37.64
69221;BME280;56331;51.992;20.910;2023-01-06T12:00:04;100700.15;;;21.79;37.49
69221;BME280;56331;51.992;20.910;2023-01-06T12:02:29;100707.34;;;21.80;37.48
69221;BME280;56331;51.992;20.910;2023-01-06T12:04:55;100708.37;;;21.82;36.78
69221;BME280;56331;51.992;20.910;2023-01-06T12:07:41;100708.06;;;21.83;36.31
69221;BME280;56331;51.992;20.910;2023-01-06T12:10:09;100705.28;;;21.83;36.05
69221;BME280;56331;51.992;20.910;2023-01-06T12:12:35;100711.91;;;21.85;35.69
69221;BME280;56331;51.992;20.910;2023-01-06T12:15:01;100716.87;;;21.85;35.57
69221;BME280;56331;51.992;20.910;2023-01-06T12:20:05;100699.07;;;21.87;35.22
69221;BME280;56331;51.992;20.910;2023-01-06T12:25:10;100693.52;;;21.87;34.90
69221;BME280;56331;51.992;20.910;2023-01-06T12:27:36;100687.40;;;21.87;34.78
69221;BME280;56331;51.992;20.910;2023-01-06T12:30:03;100689.62;;;21.88;34.61
69221;BME280;56331;51.992;20.910;2023-01-06T12:32:33;100688.23;;;21.88;34.41
69221;BME280;56331;51.992;20.910;2023-01-06T12:34:59;100681.04;;;21.87;35.01
69221;BME280;56331;51.992;20.910;2023-01-06T12:37:29;100677.46;;;21.86;35.40
69221;BME280;56331;51.992;20.910;2023-01-06T12:47:51;100667.36;;;21.81;35.59
69221;BME280;56331;51.992;20.910;2023-01-06T12:50:25;100673.71;;;21.82;35.65
69221;BME280;56331;51.992;20.910;2023-01-06T12:55:25;100670.71;;;21.81;35.38
69221;BME280;56331;51.992;20.910;2023-01-06T12:57:50;100667.13;;;21.80;35.77
69221;BME280;56331;51.992;20.910;2023-01-06T13:16:02;100670.80;;;21.78;35.44
69221;BME280;56331;51.992;20.910;2023-01-06T13:18:33;100673.34;;;21.77;35.52
69221;BME280;56331;51.992;20.910;2023-01-06T13:34:02;100644.81;;;21.77;35.55
69221;BME280;56331;51.992;20.910;2023-01-06T13:39:07;100636.81;;;21.75;35.40
69221;BME280;56331;51.992;20.910;2023-01-06T13:41:31;100637.62;;;21.76;35.58
69221;BME280;56331;51.992;20.910;2023-01-06T13:43:58;100635.66;;;21.76;35.42
69221;BME280;56331;51.992;20.910;2023-01-06T13:46:25;100627.69;;;21.75;35.36
69221;BME280;56331;51.992;20.910;2023-01-06T13:48:58;100629.87;;;21.75;35.32
69221;BME280;56331;51.992;20.910;2023-01-06T13:51:22;100629.87;;;21.75;35.34
69221;BME280;56331;51.992;20.910;2023-01-06T13:53:48;100615.78;;;21.74;35.41
69221;BME280;56331;51.992;20.910;2023-01-06T13:58:45;100594.16;;;21.74;35.29
69221;BME280;56331;51.992;20.910;2023-01-06T14:03:49;100572.55;;;21.73;35.14
69221;BME280;56331;51.992;20.910;2023-01-06T14:08:49;100575.32;;;21.73;35.22
69221;BME280;56331;51.992;20.910;2023-01-06T14:13:51;100567.81;;;21.74;35.10
69221;BME280;56331;51.992;20.910;2023-01-06T14:16:18;100571.16;;;21.73;35.23
69221;BME280;56331;51.992;20.910;2023-01-06T14:18:49;100570.58;;;21.74;35.07
69221;BME280;56331;51.992;20.910;2023-01-06T14:21:24;100573.03;;;21.75;34.86
69221;BME280;56331;51.992;20.910;2023-01-06T14:24:03;100569.45;;;21.75;35.00
69221;BME280;56331;51.992;20.910;2023-01-06T14:26:46;100582.73;;;21.75;35.26
69221;BME280;56331;51.992;20.910;2023-01-06T14:31:58;100592.22;;;21.74;35.62
69221;BME280;56331;51.992;20.910;2023-01-06T14:34:24;100604.70;;;21.74;35.56
69221;BME280;56331;51.992;20.910;2023-01-06T14:36:50;100614.86;;;21.76;35.25
69221;BME280;56331;51.992;20.910;2023-01-06T14:39:18;100621.23;;;21.77;35.25
69221;BME280;56331;51.992;20.910;2023-01-06T14:41:50;100613.73;;;21.77;35.22
69221;BME280;56331;51.992;20.910;2023-01-06T14:44:16;100618.69;;;21.78;35.06
69221;BME280;56331;51.992;20.910;2023-01-06T14:46:47;100628.05;;;21.79;35.00